KDRI/DRI METAR and TAF weather

Enter ICAO airport designator
Station Type Date Time Source
KDRI METAR 2020/03/31 23:35 UTC NOAA

KDRI 312335Z AUTO 34007KT 10SM SCT035 BKN041 18/09 A3000 RMK AO2 T01810091


Station Type Date Time Source
KDRI Decoded METAR 2020/03/31 23:35 UTC NOAA

De Ridder, Beauregard Parish Airport, LA, United States (KDRI) 30-49-54N 093-20-23W
Mar 31, 2020 - 07:35 PM EDT / 2020.03.31 2335 UTC
Wind: from the NNW (340 degrees) at 8 MPH (7 KT):0
Visibility: 10 mile(s):0
Sky conditions: mostly cloudy
Temperature: 64.6 F (18.1 C)
Dew Point: 48.4 F (9.1 C)
Relative Humidity: 55%
Pressure (altimeter): 30 in. Hg (1015 hPa)
ob: KDRI 312335Z AUTO 34007KT 10SM SCT035 BKN041 18/09 A3000 RMK AO2 T01810091
cycle: 23

Station Type Date Time Source
KDRI TAF UTC NOAA

Error!

Example: see airport list